sensor_id;sensor_type;location;lat;lon;timestamp;temperature;humidity
72762;SHT30;60886;55.034;73.150;2023-11-19T03:18:02;-7.87;88.80
72762;SHT30;60886;55.034;73.150;2023-11-19T03:21:07;-7.83;88.36
72762;SHT30;60886;55.034;73.150;2023-11-19T03:24:14;-7.71;88.38
72762;SHT30;60886;55.034;73.150;2023-11-19T03:27:16;-7.63;88.43
72762;SHT30;60886;55.034;73.150;2023-11-19T03:30:18;-7.61;88.36
72762;SHT30;60886;55.034;73.150;2023-11-19T03:33:20;-7.55;88.49
72762;SHT30;60886;55.034;73.150;2023-11-19T03:36:21;-7.47;88.27
72762;SHT30;60886;55.034;73.150;2023-11-19T03:39:34;-7.48;88.11
72762;SHT30;60886;55.034;73.150;2023-11-19T03:42:36;-7.46;87.86
72762;SHT30;60886;55.034;73.150;2023-11-19T03:45:40;-7.44;87.70
72762;SHT30;60886;55.034;73.150;2023-11-19T03:48:43;-7.40;87.91
72762;SHT30;60886;55.034;73.150;2023-11-19T03:51:44;-7.34;87.98
72762;SHT30;60886;55.034;73.150;2023-11-19T03:54:46;-7.26;88.30
72762;SHT30;60886;55.034;73.150;2023-11-19T03:57:48;-7.36;87.61
72762;SHT30;60886;55.034;73.150;2023-11-19T04:00:49;-7.29;87.85
72762;SHT30;60886;55.034;73.150;2023-11-19T04:03:51;-7.20;87.92
72762;SHT30;60886;55.034;73.150;2023-11-19T04:06:53;-7.08;88.30
72762;SHT30;60886;55.034;73.150;2023-11-19T04:09:55;-7.15;87.79
72762;SHT30;60886;55.034;73.150;2023-11-19T04:12:57;-7.12;87.86
72762;SHT30;60886;55.034;73.150;2023-11-19T04:15:58;-7.08;87.96
72762;SHT30;60886;55.034;73.150;2023-11-19T04:19:00;-7.15;87.59
72762;SHT30;60886;55.034;73.150;2023-11-19T04:22:03;-7.16;87.73
72762;SHT30;60886;55.034;73.150;2023-11-19T04:25:05;-7.13;87.87
72762;SHT30;60886;55.034;73.150;2023-11-19T04:28:06;-7.09;87.88
72762;SHT30;60886;55.034;73.150;2023-11-19T04:31:08;-7.06;88.01
72762;SHT30;60886;55.034;73.150;2023-11-19T04:34:10;-7.09;87.79
72762;SHT30;60886;55.034;73.150;2023-11-19T04:37:12;-7.03;87.71
72762;SHT30;60886;55.034;73.150;2023-11-19T04:40:14;-6.93;88.00
72762;SHT30;60886;55.034;73.150;2023-11-19T04:43:15;-6.91;87.41
72762;SHT30;60886;55.034;73.150;2023-11-19T04:46:16;-6.88;87.33
72762;SHT30;60886;55.034;73.150;2023-11-19T04:49:18;-6.79;87.57
72762;SHT30;60886;55.034;73.150;2023-11-19T04:52:20;-6.71;87.53
72762;SHT30;60886;55.034;73.150;2023-11-19T04:55:21;-6.48;88.30
72762;SHT30;60886;55.034;73.150;2023-11-19T04:58:23;-6.40;88.01
72762;SHT30;60886;55.034;73.150;2023-11-19T05:01:24;-6.52;86.77
72762;SHT30;60886;55.034;73.150;2023-11-19T05:04:34;-6.54;86.59
72762;SHT30;60886;55.034;73.150;2023-11-19T05:07:36;-6.42;87.18
72762;SHT30;60886;55.034;73.150;2023-11-19T05:10:37;-6.45;86.89
72762;SHT30;60886;55.034;73.150;2023-11-19T05:13:40;-6.49;86.43
72762;SHT30;60886;55.034;73.150;2023-11-19T05:16:42;-6.55;86.00
72762;SHT30;60886;55.034;73.150;2023-11-19T05:19:46;-6.48;86.55
72762;SHT30;60886;55.034;73.150;2023-11-19T05:22:50;-6.54;86.33
72762;SHT30;60886;55.034;73.150;2023-11-19T05:25:53;-6.49;86.40
72762;SHT30;60886;55.034;73.150;2023-11-19T05:28:54;-6.47;86.50
72762;SHT30;60886;55.034;73.150;2023-11-19T05:31:56;-6.38;86.81
72762;SHT30;60886;55.034;73.150;2023-11-19T05:34:57;-6.20;87.24
72762;SHT30;60886;55.034;73.150;2023-11-19T05:37:59;-6.13;86.94
72762;SHT30;60886;55.034;73.150;2023-11-19T05:41:01;-6.09;86.85
72762;SHT30;60886;55.034;73.150;2023-11-19T05:44:02;-6.03;86.65
72762;SHT30;60886;55.034;73.150;2023-11-19T05:47:04;-6.04;86.20
72762;SHT30;60886;55.034;73.150;2023-11-19T05:50:06;-5.99;86.37
72762;SHT30;60886;55.034;73.150;2023-11-19T05:53:07;-5.93;85.71
72762;SHT30;60886;55.034;73.150;2023-11-19T05:56:11;-5.83;86.18
72762;SHT30;60886;55.034;73.150;2023-11-19T05:59:18;-5.92;85.56
72762;SHT30;60886;55.034;73.150;2023-11-19T06:02:19;-5.79;86.37
72762;SHT30;60886;55.034;73.150;2023-11-19T06:05:21;-5.63;86.51
72762;SHT30;60886;55.034;73.150;2023-11-19T06:08:22;-5.68;85.77
72762;SHT30;60886;55.034;73.150;2023-11-19T06:11:24;-5.55;86.09
72762;SHT30;60886;55.034;73.150;2023-11-19T06:14:33;-5.49;86.33
72762;SHT30;60886;55.034;73.150;2023-11-19T06:17:35;-5.43;86.25
72762;SHT30;60886;55.034;73.150;2023-11-19T06:20:37;-5.47;85.49
72762;SHT30;60886;55.034;73.150;2023-11-19T06:23:38;-5.58;85.10
72762;SHT30;60886;55.034;73.150;2023-11-19T06:26:40;-5.65;84.97
72762;SHT30;60886;55.034;73.150;2023-11-19T06:29:42;-5.79;84.38
72762;SHT30;60886;55.034;73.150;2023-11-19T06:32:43;-5.90;84.25
72762;SHT30;60886;55.034;73.150;2023-11-19T06:35:45;-5.87;84.78
72762;SHT30;60886;55.034;73.150;2023-11-19T06:38:47;-5.82;85.04
72762;SHT30;60886;55.034;73.150;2023-11-19T06:41:48;-5.76;84.97
72762;SHT30;60886;55.034;73.150;2023-11-19T06:44:52;-5.79;84.46
72762;SHT30;60886;55.034;73.150;2023-11-19T06:47:53;-5.72;85.12
72762;SHT30;60886;55.034;73.150;2023-11-19T06:50:54;-5.78;84.35
72762;SHT30;60886;55.034;73.150;2023-11-19T06:53:56;-5.83;84.37
72762;SHT30;60886;55.034;73.150;2023-11-19T06:56:58;-5.76;84.93
72762;SHT30;60886;55.034;73.150;2023-11-19T07:00:00;-5.59;85.45
72762;SHT30;60886;55.034;73.150;2023-11-19T07:03:02;-5.60;84.86
72762;SHT30;60886;55.034;73.150;2023-11-19T07:06:23;-5.55;84.42
72762;SHT30;60886;55.034;73.150;2023-11-19T07:09:33;-5.51;83.93
72762;SHT30;60886;55.034;73.150;2023-11-19T07:12:57;-5.48;83.96
72762;SHT30;60886;55.034;73.150;2023-11-19T07:16:11;-5.52;83.46
72762;SHT30;60886;55.034;73.150;2023-11-19T07:19:13;-5.65;83.48
72762;SHT30;60886;55.034;73.150;2023-11-19T07:22:15;-5.66;83.49
72762;SHT30;60886;55.034;73.150;2023-11-19T07:25:20;-5.66;83.85
72762;SHT30;60886;55.034;73.150;2023-11-19T07:28:30;-5.54;84.65
72762;SHT30;60886;55.034;73.150;2023-11-19T07:31:36;-5.54;84.43
72762;SHT30;60886;55.034;73.150;2023-11-19T07:34:47;-5.55;84.45
72762;SHT30;60886;55.034;73.150;2023-11-19T07:37:48;-5.55;84.29
72762;SHT30;60886;55.034;73.150;2023-11-19T07:40:54;-5.65;83.84
72762;SHT30;60886;55.034;73.150;2023-11-19T07:43:55;-5.75;84.04
72762;SHT30;60886;55.034;73.150;2023-11-19T07:46:57;-5.65;84.18
72762;SHT30;60886;55.034;73.150;2023-11-19T07:49:59;-5.48;85.04
72762;SHT30;60886;55.034;73.150;2023-11-19T07:53:07;-5.45;84.79
72762;SHT30;60886;55.034;73.150;2023-11-19T07:56:10;-5.35;85.21
72762;SHT30;60886;55.034;73.150;2023-11-19T07:59:11;-5.32;84.63
72762;SHT30;60886;55.034;73.150;2023-11-19T08:02:13;-5.38;84.20
72762;SHT30;60886;55.034;73.150;2023-11-19T08:05:19;-5.32;84.69
72762;SHT30;60886;55.034;73.150;2023-11-19T08:08:20;-5.39;83.73
72762;SHT30;60886;55.034;73.150;2023-11-19T08:11:22;-5.45;83.35
72762;SHT30;60886;55.034;73.150;2023-11-19T08:14:40;-5.45;83.14
72762;SHT30;60886;55.034;73.150;2023-11-19T08:17:41;-5.38;84.14
72762;SHT30;60886;55.034;73.150;2023-11-19T08:20:44;-5.39;83.87
72762;SHT30;60886;55.034;73.150;2023-11-19T08:27:02;-5.58;82.96
72762;SHT30;60886;55.034;73.150;2023-11-19T08:30:05;-5.51;84.15
72762;SHT30;60886;55.034;73.150;2023-11-19T08:33:07;-5.52;84.06
72762;SHT30;60886;55.034;73.150;2023-11-19T08:36:09;-5.51;84.28
72762;SHT30;60886;55.034;73.150;2023-11-19T08:39:33;-5.45;84.97
72762;SHT30;60886;55.034;73.150;2023-11-19T08:42:36;-5.48;84.37
72762;SHT30;60886;55.034;73.150;2023-11-19T08:45:40;-5.43;84.13
72762;SHT30;60886;55.034;73.150;2023-11-19T08:48:46;-5.59;83.37
72762;SHT30;60886;55.034;73.150;2023-11-19T08:51:50;-5.56;84.30
72762;SHT30;60886;55.034;73.150;2023-11-19T08:54:51;-5.82;82.82
72762;SHT30;60886;55.034;73.150;2023-11-19T08:57:53;-5.73;83.79
72762;SHT30;60886;55.034;73.150;2023-11-19T09:01:05;-5.99;82.62
72762;SHT30;60886;55.034;73.150;2023-11-19T09:04:14;-6.09;83.12
72762;SHT30;60886;55.034;73.150;2023-11-19T09:07:15;-6.09;83.80
72762;SHT30;60886;55.034;73.150;2023-11-19T09:10:17;-6.00;84.18
72762;SHT30;60886;55.034;73.150;2023-11-19T09:13:25;-5.94;84.57
72762;SHT30;60886;55.034;73.150;2023-11-19T09:16:27;-5.92;84.13
72762;SHT30;60886;55.034;73.150;2023-11-19T09:19:37;-5.82;84.38
72762;SHT30;60886;55.034;73.150;2023-11-19T09:22:51;-5.75;84.15
72762;SHT30;60886;55.034;73.150;2023-11-19T09:26:05;-5.87;83.38
72762;SHT30;60886;55.034;73.150;2023-11-19T09:29:17;-5.83;84.16
72762;SHT30;60886;55.034;73.150;2023-11-19T09:32:24;-5.83;83.81
72762;SHT30;60886;55.034;73.150;2023-11-19T09:35:35;-5.83;83.67
72762;SHT30;60886;55.034;73.150;2023-11-19T09:38:56;-5.96;83.11
72762;SHT30;60886;55.034;73.150;2023-11-19T09:42:01;-5.93;83.82
72762;SHT30;60886;55.034;73.150;2023-11-19T09:45:17;-5.96;83.91
72762;SHT30;60886;55.034;73.150;2023-11-19T09:48:27;-6.00;83.45
72762;SHT30;60886;55.034;73.150;2023-11-19T09:51:30;-6.00;83.95
72762;SHT30;60886;55.034;73.150;2023-11-19T09:54:36;-6.03;83.82
72762;SHT30;60886;55.034;73.150;2023-11-19T09:57:57;-6.09;83.61
72762;SHT30;60886;55.034;73.150;2023-11-19T10:01:18;-6.18;83.45
72762;SHT30;60886;55.034;73.150;2023-11-19T10:04:22;-6.17;84.34
72762;SHT30;60886;55.034;73.150;2023-11-19T10:07:24;-6.33;83.72
72762;SHT30;60886;55.034;73.150;2023-11-19T10:10:27;-6.34;84.10
72762;SHT30;60886;55.034;73.150;2023-11-19T10:13:29;-6.33;84.36
72762;SHT30;60886;55.034;73.150;2023-11-19T10:16:31;-6.28;84.58
72762;SHT30;60886;55.034;73.150;2023-11-19T10:19:33;-6.24;84.83
72762;SHT30;60886;55.034;73.150;2023-11-19T10:22:37;-6.37;83.95
72762;SHT30;60886;55.034;73.150;2023-11-19T10:25:38;-6.34;84.41
72762;SHT30;60886;55.034;73.150;2023-11-19T10:28:40;-6.37;84.31
72762;SHT30;60886;55.034;73.150;2023-11-19T10:31:56;-6.37;84.41
72762;SHT30;60886;55.034;73.150;2023-11-19T10:35:07;-6.40;84.59
72762;SHT30;60886;55.034;73.150;2023-11-19T10:38:15;-6.49;83.80
72762;SHT30;60886;55.034;73.150;2023-11-19T10:41:27;-6.54;84.29
72762;SHT30;60886;55.034;73.150;2023-11-19T10:44:34;-6.58;84.22
72762;SHT30;60886;55.034;73.150;2023-11-19T10:47:40;-6.69;83.98
72762;SHT30;60886;55.034;73.150;2023-11-19T10:50:44;-6.72;84.55
72762;SHT30;60886;55.034;73.150;2023-11-19T10:53:45;-6.78;84.45
72762;SHT30;60886;55.034;73.150;2023-11-19T10:56:55;-6.81;84.51
72762;SHT30;60886;55.034;73.150;2023-11-19T11:00:01;-6.92;84.30
72762;SHT30;60886;55.034;73.150;2023-11-19T11:03:11;-7.13;83.93
72762;SHT30;60886;55.034;73.150;2023-11-19T11:06:13;-7.13;84.54
72762;SHT30;60886;55.034;73.150;2023-11-19T11:09:16;-7.15;84.90
72762;SHT30;60886;55.034;73.150;2023-11-19T11:12:21;-7.30;84.11
72762;SHT30;60886;55.034;73.150;2023-11-19T11:16:05;-7.39;84.24
72762;SHT30;60886;55.034;73.150;2023-11-19T11:19:46;-7.53;84.36
72762;SHT30;60886;55.034;73.150;2023-11-19T11:23:46;-7.67;84.44
72762;SHT30;60886;55.034;73.150;2023-11-19T11:33:32;-7.80;85.26
72762;SHT30;60886;55.034;73.150;2023-11-19T11:37:12;-7.81;85.58
72762;SHT30;60886;55.034;73.150;2023-11-19T11:40:18;-7.81;85.28
72762;SHT30;60886;55.034;73.150;2023-11-19T11:43:46;-7.88;85.05
72762;SHT30;60886;55.034;73.150;2023-11-19T11:46:54;-7.91;85.14
72762;SHT30;60886;55.034;73.150;2023-11-19T11:49:56;-7.83;85.77
72762;SHT30;60886;55.034;73.150;2023-11-19T11:56:00;-7.97;84.97
72762;SHT30;60886;55.034;73.150;2023-11-19T11:59:08;-7.94;85.29
72762;SHT30;60886;55.034;73.150;2023-11-19T12:02:22;-8.04;84.82
72762;SHT30;60886;55.034;73.150;2023-11-19T12:05:23;-8.01;85.46
72762;SHT30;60886;55.034;73.150;2023-11-19T12:08:27;-8.08;85.19
72762;SHT30;60886;55.034;73.150;2023-11-19T12:11:30;-8.02;85.74
72762;SHT30;60886;55.034;73.150;2023-11-19T12:18:00;-8.16;84.96
72762;SHT30;60886;55.034;73.150;2023-11-19T12:21:02;-8.09;85.60
72762;SHT30;60886;55.034;73.150;2023-11-19T12:24:16;-8.16;85.41
72762;SHT30;60886;55.034;73.150;2023-11-19T12:27:17;-8.15;85.43
72762;SHT30;60886;55.034;73.150;2023-11-19T12:30:25;-8.14;85.63
72762;SHT30;60886;55.034;73.150;2023-11-19T12:33:27;-8.12;85.69
72762;SHT30;60886;55.034;73.150;2023-11-19T12:36:29;-8.14;85.69
72762;SHT30;60886;55.034;73.150;2023-11-19T12:39:38;-8.19;85.22
72762;SHT30;60886;55.034;73.150;2023-11-19T12:42:41;-8.30;84.86
72762;SHT30;60886;55.034;73.150;2023-11-19T12:45:57;-8.42;85.00
72762;SHT30;60886;55.034;73.150;2023-11-19T12:48:59;-8.45;85.35
72762;SHT30;60886;55.034;73.150;2023-11-19T12:52:00;-8.48;85.42
72762;SHT30;60886;55.034;73.150;2023-11-19T12:55:23;-8.56;85.17
72762;SHT30;60886;55.034;73.150;2023-11-19T12:58:33;-8.59;85.18
72762;SHT30;60886;55.034;73.150;2023-11-19T13:01:36;-8.57;85.45
72762;SHT30;60886;55.034;73.150;2023-11-19T13:04:39;-8.60;85.51
72762;SHT30;60886;55.034;73.150;2023-11-19T13:07:50;-8.71;85.27
72762;SHT30;60886;55.034;73.150;2023-11-19T13:10:52;-8.80;85.10
72762;SHT30;60886;55.034;73.150;2023-11-19T13:14:04;-8.84;85.20
72762;SHT30;60886;55.034;73.150;2023-11-19T13:17:06;-8.89;85.18
72762;SHT30;60886;55.034;73.150;2023-11-19T13:20:07;-8.99;85.11
72762;SHT30;60886;55.034;73.150;2023-11-19T13:23:20;-9.05;85.03
72762;SHT30;60886;55.034;73.150;2023-11-19T13:26:22;-9.08;85.12
72762;SHT30;60886;55.034;73.150;2023-11-19T13:29:33;-9.18;84.93
72762;SHT30;60886;55.034;73.150;2023-11-19T13:32:45;-9.25;85.24
72762;SHT30;60886;55.034;73.150;2023-11-19T13:35:47;-9.36;84.99
72762;SHT30;60886;55.034;73.150;2023-11-19T13:38:49;-9.38;85.46
72762;SHT30;60886;55.034;73.150;2023-11-19T13:41:59;-9.46;85.18
72762;SHT30;60886;55.034;73.150;2023-11-19T13:45:11;-9.42;85.56
72762;SHT30;60886;55.034;73.150;2023-11-19T13:48:14;-9.42;85.59
72762;SHT30;60886;55.034;73.150;2023-11-19T13:51:28;-9.49;85.38
72762;SHT30;60886;55.034;73.150;2023-11-19T13:54:33;-9.59;85.36
72762;SHT30;60886;55.034;73.150;2023-11-19T13:57:35;-9.59;85.40
72762;SHT30;60886;55.034;73.150;2023-11-19T14:00:37;-9.62;85.48
72762;SHT30;60886;55.034;73.150;2023-11-19T14:03:39;-9.60;85.69
72762;SHT30;60886;55.034;73.150;2023-11-19T14:06:41;-9.58;85.61
72762;SHT30;60886;55.034;73.150;2023-11-19T14:09:46;-9.58;85.57
72762;SHT30;60886;55.034;73.150;2023-11-19T14:12:47;-9.65;85.21
72762;SHT30;60886;55.034;73.150;2023-11-19T14:15:49;-9.73;85.20
72762;SHT30;60886;55.034;73.150;2023-11-19T14:18:51;-9.73;85.36
72762;SHT30;60886;55.034;73.150;2023-11-19T14:21:53;-9.76;85.15
72762;SHT30;60886;55.034;73.150;2023-11-19T14:24:55;-9.80;85.13
72762;SHT30;60886;55.034;73.150;2023-11-19T14:27:56;-9.96;84.70
72762;SHT30;60886;55.034;73.150;2023-11-19T14:30:58;-10.00;84.90
72762;SHT30;60886;55.034;73.150;2023-11-19T14:34:01;-10.06;84.91
72762;SHT30;60886;55.034;73.150;2023-11-19T14:37:03;-10.05;85.17
72762;SHT30;60886;55.034;73.150;2023-11-19T14:40:05;-10.07;84.98
72762;SHT30;60886;55.034;73.150;2023-11-19T14:43:10;-10.13;85.12
72762;SHT30;60886;55.034;73.150;2023-11-19T14:46:11;-10.06;85.45
72762;SHT30;60886;55.034;73.150;2023-11-19T14:49:13;-10.16;85.02
72762;SHT30;60886;55.034;73.150;2023-11-19T14:52:15;-10.24;84.76
72762;SHT30;60886;55.034;73.150;2023-11-19T14:55:17;-10.29;84.93
72762;SHT30;60886;55.034;73.150;2023-11-19T14:58:22;-10.33;84.94
72762;SHT30;60886;55.034;73.150;2023-11-19T15:01:24;-10.43;84.66
72762;SHT30;60886;55.034;73.150;2023-11-19T15:04:33;-10.44;84.99
72762;SHT30;60886;55.034;73.150;2023-11-19T15:07:37;-10.44;85.27
72762;SHT30;60886;55.034;73.150;2023-11-19T15:10:38;-10.51;84.88
72762;SHT30;60886;55.034;73.150;2023-11-19T15:13:40;-10.54;84.90
72762;SHT30;60886;55.034;73.150;2023-11-19T15:16:43;-10.53;85.07
72762;SHT30;60886;55.034;73.150;2023-11-19T15:19:44;-10.60;84.69
72762;SHT30;60886;55.034;73.150;2023-11-19T15:22:47;-10.64;84.73
72762;SHT30;60886;55.034;73.150;2023-11-19T15:25:49;-10.68;84.76
72762;SHT30;60886;55.034;73.150;2023-11-19T15:28:51;-10.74;84.62
72762;SHT30;60886;55.034;73.150;2023-11-19T15:31:57;-10.79;84.69
72762;SHT30;60886;55.034;73.150;2023-11-19T15:34:58;-10.82;84.60
72762;SHT30;60886;55.034;73.150;2023-11-19T15:38:00;-10.82;84.69
72762;SHT30;60886;55.034;73.150;2023-11-19T15:41:03;-10.89;84.64
72762;SHT30;60886;55.034;73.150;2023-11-19T15:44:06;-10.96;84.46
72762;SHT30;60886;55.034;73.150;2023-11-19T15:47:09;-10.96;84.73
72762;SHT30;60886;55.034;73.150;2023-11-19T15:50:11;-11.08;84.30
72762;SHT30;60886;55.034;73.150;2023-11-19T15:53:12;-11.15;84.31
72762;SHT30;60886;55.034;73.150;2023-11-19T15:56:14;-11.18;84.45
72762;SHT30;60886;55.034;73.150;2023-11-19T15:59:16;-11.29;84.34
72762;SHT30;60886;55.034;73.150;2023-11-19T16:02:17;-11.32;84.52
72762;SHT30;60886;55.034;73.150;2023-11-19T16:05:19;-11.32;84.81
72762;SHT30;60886;55.034;73.150;2023-11-19T16:08:21;-11.29;84.91
72762;SHT30;60886;55.034;73.150;2023-11-19T16:11:23;-11.30;84.80
72762;SHT30;60886;55.034;73.150;2023-11-19T16:14:34;-11.29;84.92
72762;SHT30;60886;55.034;73.150;2023-11-19T16:17:35;-11.27;84.78
72762;SHT30;60886;55.034;73.150;2023-11-19T16:20:37;-11.37;84.45
72762;SHT30;60886;55.034;73.150;2023-11-19T16:23:39;-11.44;84.42
72762;SHT30;60886;55.034;73.150;2023-11-19T16:26:41;-11.43;84.79
72762;SHT30;60886;55.034;73.150;2023-11-19T16:29:42;-11.40;84.72
72762;SHT30;60886;55.034;73.150;2023-11-19T16:32:56;-11.44;84.67
72762;SHT30;60886;55.034;73.150;2023-11-19T16:36:00;-11.47;84.59
72762;SHT30;60886;55.034;73.150;2023-11-19T16:39:02;-11.50;84.51
72762;SHT30;60886;55.034;73.150;2023-11-19T16:42:05;-11.50;84.74
72762;SHT30;60886;55.034;73.150;2023-11-19T16:45:08;-11.50;84.72
72762;SHT30;60886;55.034;73.150;2023-11-19T16:48:13;-11.56;84.51
72762;SHT30;60886;55.034;73.150;2023-11-19T16:51:14;-11.59;84.50
72762;SHT30;60886;55.034;73.150;2023-11-19T16:54:17;-11.53;84.61
72762;SHT30;60886;55.034;73.150;2023-11-19T16:57:19;-11.57;84.48
72762;SHT30;60886;55.034;73.150;2023-11-19T17:00:23;-11.59;84.37
72762;SHT30;60886;55.034;73.150;2023-11-19T17:03:26;-11.59;84.28
72762;SHT30;60886;55.034;73.150;2023-11-19T17:06:28;-11.69;84.02
72762;SHT30;60886;55.034;73.150;2023-11-19T17:09:33;-11.73;83.94
72762;SHT30;60886;55.034;73.150;2023-11-19T17:12:36;-11.82;83.87
72762;SHT30;60886;55.034;73.150;2023-11-19T17:15:38;-11.91;83.97
72762;SHT30;60886;55.034;73.150;2023-11-19T17:18:39;-11.98;83.99
72762;SHT30;60886;55.034;73.150;2023-11-19T17:21:41;-11.99;84.09
72762;SHT30;60886;55.034;73.150;2023-11-19T17:24:42;-11.99;84.09
72762;SHT30;60886;55.034;73.150;2023-11-19T17:27:44;-11.99;84.06
72762;SHT30;60886;55.034;73.150;2023-11-19T17:30:47;-11.97;84.22
72762;SHT30;60886;55.034;73.150;2023-11-19T17:33:49;-12.11;83.80
72762;SHT30;60886;55.034;73.150;2023-11-19T17:36:55;-12.08;84.05
72762;SHT30;60886;55.034;73.150;2023-11-19T17:39:57;-12.14;83.77
72762;SHT30;60886;55.034;73.150;2023-11-19T17:42:58;-12.17;83.85
72762;SHT30;60886;55.034;73.150;2023-11-19T17:46:01;-12.21;83.74
72762;SHT30;60886;55.034;73.150;2023-11-19T17:49:06;-12.22;84.02
72762;SHT30;60886;55.034;73.150;2023-11-19T17:52:08;-12.29;84.07
72762;SHT30;60886;55.034;73.150;2023-11-19T17:55:11;-12.25;84.31
72762;SHT30;60886;55.034;73.150;2023-11-19T17:58:15;-12.26;84.25
72762;SHT30;60886;55.034;73.150;2023-11-19T18:01:17;-12.32;83.88
72762;SHT30;60886;55.034;73.150;2023-11-19T18:04:18;-12.22;84.32
72762;SHT30;60886;55.034;73.150;2023-11-19T18:07:20;-12.04;84.80
72762;SHT30;60886;55.034;73.150;2023-11-19T18:10:23;-12.04;84.21
72762;SHT30;60886;55.034;73.150;2023-11-19T18:13:24;-11.99;84.26
72762;SHT30;60886;55.034;73.150;2023-11-19T18:16:26;-12.05;83.91
72762;SHT30;60886;55.034;73.150;2023-11-19T18:19:33;-11.94;84.47
72762;SHT30;60886;55.034;73.150;2023-11-19T18:22:36;-11.98;83.98
72762;SHT30;60886;55.034;73.150;2023-11-19T18:25:38;-11.82;84.47
72762;SHT30;60886;55.034;73.150;2023-11-19T18:28:39;-11.75;84.12
72762;SHT30;60886;55.034;73.150;2023-11-19T18:31:41;-11.73;84.02
72762;SHT30;60886;55.034;73.150;2023-11-19T18:34:42;-11.64;84.02
72762;SHT30;60886;55.034;73.150;2023-11-19T18:37:44;-11.63;83.71
72762;SHT30;60886;55.034;73.150;2023-11-19T18:40:47;-11.56;84.12
72762;SHT30;60886;55.034;73.150;2023-11-19T18:43:48;-11.59;83.70
72762;SHT30;60886;55.034;73.150;2023-11-19T18:46:50;-11.57;83.72
72762;SHT30;60886;55.034;73.150;2023-11-19T18:49:53;-11.57;83.63
72762;SHT30;60886;55.034;73.150;2023-11-19T18:52:55;-11.53;83.90
72762;SHT30;60886;55.034;73.150;2023-11-19T18:55:57;-11.47;83.90
72762;SHT30;60886;55.034;73.150;2023-11-19T18:58:59;-11.39;84.25
72762;SHT30;60886;55.034;73.150;2023-11-19T19:02:01;-11.37;83.94
72762;SHT30;60886;55.034;73.150;2023-11-19T19:05:04;-11.27;84.03
72762;SHT30;60886;55.034;73.150;2023-11-19T19:08:06;-11.30;83.79
72762;SHT30;60886;55.034;73.150;2023-11-19T19:11:09;-11.33;83.72
72762;SHT30;60886;55.034;73.150;2023-11-19T19:14:11;-11.27;83.77
72762;SHT30;60886;55.034;73.150;2023-11-19T19:17:12;-11.22;83.95
72762;SHT30;60886;55.034;73.150;2023-11-19T19:20:16;-11.16;83.92
72762;SHT30;60886;55.034;73.150;2023-11-19T19:23:18;-11.19;83.77
72762;SHT30;60886;55.034;73.150;2023-11-19T19:26:19;-11.19;83.70
72762;SHT30;60886;55.034;73.150;2023-11-19T19:29:22;-11.15;83.98
72762;SHT30;60886;55.034;73.150;2023-11-19T19:32:24;-11.09;84.03
72762;SHT30;60886;55.034;73.150;2023-11-19T19:35:26;-10.96;84.21
72762;SHT30;60886;55.034;73.150;2023-11-19T19:38:31;-10.98;83.59
72762;SHT30;60886;55.034;73.150;2023-11-19T19:41:32;-10.96;83.53
72762;SHT30;60886;55.034;73.150;2023-11-19T19:44:34;-10.79;84.25
72762;SHT30;60886;55.034;73.150;2023-11-19T19:47:36;-10.84;83.62
72762;SHT30;60886;55.034;73.150;2023-11-19T19:50:41;-10.81;83.82
72762;SHT30;60886;55.034;73.150;2023-11-19T19:53:42;-10.76;83.70
72762;SHT30;60886;55.034;73.150;2023-11-19T19:56:45;-10.76;83.46
72762;SHT30;60886;55.034;73.150;2023-11-19T19:59:46;-10.78;83.65
72762;SHT30;60886;55.034;73.150;2023-11-19T20:02:48;-10.79;83.62
72762;SHT30;60886;55.034;73.150;2023-11-19T20:05:49;-10.79;83.74
72762;SHT30;60886;55.034;73.150;2023-11-19T20:08:51;-10.74;83.81
72762;SHT30;60886;55.034;73.150;2023-11-19T20:11:53;-10.85;83.28
72762;SHT30;60886;55.034;73.150;2023-11-19T20:14:54;-10.95;83.27
72762;SHT30;60886;55.034;73.150;2023-11-19T20:17:57;-10.99;83.57
72762;SHT30;60886;55.034;73.150;2023-11-19T20:20:59;-11.04;83.60
72762;SHT30;60886;55.034;73.150;2023-11-19T20:24:01;-11.12;83.62
72762;SHT30;60886;55.034;73.150;2023-11-19T20:27:04;-11.18;83.53
72762;SHT30;60886;55.034;73.150;2023-11-19T20:30:06;-11.20;83.75
72762;SHT30;60886;55.034;73.150;2023-11-19T20:33:08;-11.23;83.77
72762;SHT30;60886;55.034;73.150;2023-11-19T20:36:10;-11.36;83.57
72762;SHT30;60886;55.034;73.150;2023-11-19T20:39:11;-11.29;84.19
72762;SHT30;60886;55.034;73.150;2023-11-19T20:42:16;-11.30;84.11
72762;SHT30;60886;55.034;73.150;2023-11-19T20:45:17;-11.20;84.17
72762;SHT30;60886;55.034;73.150;2023-11-19T20:48:20;-11.20;84.03
72762;SHT30;60886;55.034;73.150;2023-11-19T20:51:22;-11.26;83.47
72762;SHT30;60886;55.034;73.150;2023-11-19T20:54:33;-11.16;83.91
72762;SHT30;60886;55.034;73.150;2023-11-19T20:57:34;-11.19;83.80
72762;SHT30;60886;55.034;73.150;2023-11-19T21:00:36;-11.12;84.02
72762;SHT30;60886;55.034;73.150;2023-11-19T21:03:38;-11.08;84.15
72762;SHT30;60886;55.034;73.150;2023-11-19T21:06:39;-11.04;84.08
72762;SHT30;60886;55.034;73.150;2023-11-19T21:09:41;-10.98;84.27
72762;SHT30;60886;55.034;73.150;2023-11-19T21:12:43;-10.89;84.48
72762;SHT30;60886;55.034;73.150;2023-11-19T21:15:44;-10.89;84.16
72762;SHT30;60886;55.034;73.150;2023-11-19T21:18:46;-10.89;84.26
72762;SHT30;60886;55.034;73.150;2023-11-19T21:21:48;-11.02;83.72
72762;SHT30;60886;55.034;73.150;2023-11-19T21:24:50;-10.99;84.32
72762;SHT30;60886;55.034;73.150;2023-11-19T21:27:53;-11.04;84.13
72762;SHT30;60886;55.034;73.150;2023-11-19T21:30:57;-11.06;84.41
72762;SHT30;60886;55.034;73.150;2023-11-19T21:33:59;-11.14;84.21
72762;SHT30;60886;55.034;73.150;2023-11-19T21:37:01;-11.16;84.24
72762;SHT30;60886;55.034;73.150;2023-11-19T21:40:03;-11.16;84.35
72762;SHT30;60886;55.034;73.150;2023-11-19T21:43:08;-11.27;83.97
72762;SHT30;60886;55.034;73.150;2023-11-19T21:46:09;-11.32;84.22
72762;SHT30;60886;55.034;73.150;2023-11-19T21:49:10;-11.35;84.14
72762;SHT30;60886;55.034;73.150;2023-11-19T21:52:12;-11.36;84.35
72762;SHT30;60886;55.034;73.150;2023-11-19T21:55:14;-11.33;84.57
72762;SHT30;60886;55.034;73.150;2023-11-19T21:58:16;-11.40;84.20
72762;SHT30;60886;55.034;73.150;2023-11-19T22:01:18;-11.37;84.46
72762;SHT30;60886;55.034;73.150;2023-11-19T22:04:19;-11.39;84.38
72762;SHT30;60886;55.034;73.150;2023-11-19T22:07:22;-11.36;84.60
72762;SHT30;60886;55.034;73.150;2023-11-19T22:10:23;-11.40;84.46
72762;SHT30;60886;55.034;73.150;2023-11-19T22:13:25;-11.43;84.33
72762;SHT30;60886;55.034;73.150;2023-11-19T22:16:26;-11.51;84.15
72762;SHT30;60886;55.034;73.150;2023-11-19T22:19:33;-11.61;84.17
72762;SHT30;60886;55.034;73.150;2023-11-19T22:22:34;-11.69;84.23
72762;SHT30;60886;55.034;73.150;2023-11-19T22:25:36;-11.71;84.45
72762;SHT30;60886;55.034;73.150;2023-11-19T22:28:37;-11.71;84.48
72762;SHT30;60886;55.034;73.150;2023-11-19T22:31:41;-11.74;84.53